sensor_id;sensor_type;location;lat;lon;timestamp;P1;durP1;ratioP1;P2;durP2;ratioP2
58472;SDS011;44775;51.564;5.460;2022-10-19T00:01:34;23.52;;;10.40;;
58472;SDS011;44775;51.564;5.460;2022-10-19T00:04:00;25.08;;;10.88;;
58472;SDS011;44775;51.564;5.460;2022-10-19T00:06:27;25.02;;;10.40;;
58472;SDS011;44775;51.564;5.460;2022-10-19T00:08:57;24.00;;;10.52;;
58472;SDS011;44775;51.564;5.460;2022-10-19T00:13:51;23.70;;;10.43;;
58472;SDS011;44775;51.564;5.460;2022-10-19T00:16:17;23.60;;;9.82;;
58472;SDS011;44775;51.564;5.460;2022-10-19T00:18:43;26.42;;;10.68;;
58472;SDS011;44775;51.564;5.460;2022-10-19T00:21:10;23.02;;;9.98;;
58472;SDS011;44775;51.564;5.460;2022-10-19T00:23:40;20.73;;;10.30;;
58472;SDS011;44775;51.564;5.460;2022-10-19T00:26:05;28.67;;;10.43;;
58472;SDS011;44775;51.564;5.460;2022-10-19T00:28:31;23.08;;;10.13;;
58472;SDS011;44775;51.564;5.460;2022-10-19T00:31:00;23.83;;;10.82;;
58472;SDS011;44775;51.564;5.460;2022-10-19T00:33:28;21.33;;;10.40;;
58472;SDS011;44775;51.564;5.460;2022-10-19T00:35:54;18.77;;;10.07;;
58472;SDS011;44775;51.564;5.460;2022-10-19T00:38:19;21.05;;;10.77;;
58472;SDS011;44775;51.564;5.460;2022-10-19T00:40:45;25.80;;;10.93;;
58472;SDS011;44775;51.564;5.460;2022-10-19T00:43:15;28.50;;;11.73;;
58472;SDS011;44775;51.564;5.460;2022-10-19T00:45:44;20.42;;;10.98;;
58472;SDS011;44775;51.564;5.460;2022-10-19T00:48:11;30.73;;;10.80;;
58472;SDS011;44775;51.564;5.460;2022-10-19T00:50:39;29.08;;;11.95;;
58472;SDS011;44775;51.564;5.460;2022-10-19T00:53:06;23.45;;;11.23;;
58472;SDS011;44775;51.564;5.460;2022-10-19T00:55:31;35.22;;;12.55;;
58472;SDS011;44775;51.564;5.460;2022-10-19T00:57:58;23.75;;;11.65;;
58472;SDS011;44775;51.564;5.460;2022-10-19T01:00:24;27.60;;;11.27;;
58472;SDS011;44775;51.564;5.460;2022-10-19T01:02:50;25.70;;;11.70;;
58472;SDS011;44775;51.564;5.460;2022-10-19T01:05:15;22.45;;;12.82;;
58472;SDS011;44775;51.564;5.460;2022-10-19T01:07:41;29.90;;;13.20;;
58472;SDS011;44775;51.564;5.460;2022-10-19T01:10:07;23.15;;;11.82;;
58472;SDS011;44775;51.564;5.460;2022-10-19T01:12:50;31.70;;;12.77;;
58472;SDS011;44775;51.564;5.460;2022-10-19T01:21:10;23.08;;;12.60;;
58472;SDS011;44775;51.564;5.460;2022-10-19T01:26:24;28.92;;;12.93;;
58472;SDS011;44775;51.564;5.460;2022-10-19T01:34:19;27.40;;;12.65;;
58472;SDS011;44775;51.564;5.460;2022-10-19T01:50:30;26.77;;;12.90;;
58472;SDS011;44775;51.564;5.460;2022-10-19T01:53:13;26.17;;;13.48;;
58472;SDS011;44775;51.564;5.460;2022-10-19T01:55:41;33.22;;;13.52;;
58472;SDS011;44775;51.564;5.460;2022-10-19T01:58:11;28.83;;;13.18;;
58472;SDS011;44775;51.564;5.460;2022-10-19T02:00:41;27.63;;;13.73;;
58472;SDS011;44775;51.564;5.460;2022-10-19T02:03:10;26.52;;;13.32;;
58472;SDS011;44775;51.564;5.460;2022-10-19T02:05:37;26.75;;;12.40;;
58472;SDS011;44775;51.564;5.460;2022-10-19T02:08:05;30.05;;;13.13;;
58472;SDS011;44775;51.564;5.460;2022-10-19T02:10:36;29.23;;;13.63;;
58472;SDS011;44775;51.564;5.460;2022-10-19T02:13:03;26.50;;;13.68;;
58472;SDS011;44775;51.564;5.460;2022-10-19T02:15:32;29.15;;;13.80;;
58472;SDS011;44775;51.564;5.460;2022-10-19T02:18:01;23.85;;;13.68;;
58472;SDS011;44775;51.564;5.460;2022-10-19T02:20:28;28.77;;;13.75;;
58472;SDS011;44775;51.564;5.460;2022-10-19T02:22:54;24.65;;;13.77;;
58472;SDS011;44775;51.564;5.460;2022-10-19T02:25:20;26.70;;;13.20;;
58472;SDS011;44775;51.564;5.460;2022-10-19T02:27:47;24.20;;;12.82;;
58472;SDS011;44775;51.564;5.460;2022-10-19T02:30:13;28.02;;;13.23;;
58472;SDS011;44775;51.564;5.460;2022-10-19T02:32:41;26.05;;;12.57;;
58472;SDS011;44775;51.564;5.460;2022-10-19T02:35:08;20.50;;;13.35;;
58472;SDS011;44775;51.564;5.460;2022-10-19T02:37:36;26.33;;;13.80;;
58472;SDS011;44775;51.564;5.460;2022-10-19T02:40:02;27.75;;;13.75;;
58472;SDS011;44775;51.564;5.460;2022-10-19T02:42:38;31.45;;;14.18;;
58472;SDS011;44775;51.564;5.460;2022-10-19T02:45:08;23.33;;;13.07;;
58472;SDS011;44775;51.564;5.460;2022-10-19T02:47:36;24.95;;;13.90;;
58472;SDS011;44775;51.564;5.460;2022-10-19T02:50:06;33.90;;;13.55;;
58472;SDS011;44775;51.564;5.460;2022-10-19T02:52:35;27.63;;;12.68;;
58472;SDS011;44775;51.564;5.460;2022-10-19T02:55:02;29.98;;;14.35;;
58472;SDS011;44775;51.564;5.460;2022-10-19T02:57:28;29.13;;;13.35;;
58472;SDS011;44775;51.564;5.460;2022-10-19T02:59:56;23.00;;;12.85;;
58472;SDS011;44775;51.564;5.460;2022-10-19T03:02:21;28.23;;;13.00;;
58472;SDS011;44775;51.564;5.460;2022-10-19T03:04:47;28.65;;;12.95;;
58472;SDS011;44775;51.564;5.460;2022-10-19T03:07:14;24.83;;;12.30;;
58472;SDS011;44775;51.564;5.460;2022-10-19T03:09:41;26.38;;;12.50;;
58472;SDS011;44775;51.564;5.460;2022-10-19T03:12:07;32.42;;;12.52;;
58472;SDS011;44775;51.564;5.460;2022-10-19T03:14:33;24.35;;;13.18;;
58472;SDS011;44775;51.564;5.460;2022-10-19T03:16:59;24.17;;;12.52;;
58472;SDS011;44775;51.564;5.460;2022-10-19T03:19:24;32.20;;;13.57;;
58472;SDS011;44775;51.564;5.460;2022-10-19T03:21:50;28.00;;;12.88;;
58472;SDS011;44775;51.564;5.460;2022-10-19T03:24:15;22.33;;;12.50;;
58472;SDS011;44775;51.564;5.460;2022-10-19T03:26:41;25.13;;;13.02;;
58472;SDS011;44775;51.564;5.460;2022-10-19T03:29:07;31.75;;;12.65;;
58472;SDS011;44775;51.564;5.460;2022-10-19T03:31:32;26.30;;;12.60;;
58472;SDS011;44775;51.564;5.460;2022-10-19T03:33:58;26.35;;;12.95;;
58472;SDS011;44775;51.564;5.460;2022-10-19T03:36:27;28.60;;;11.95;;
58472;SDS011;44775;51.564;5.460;2022-10-19T03:38:55;22.42;;;12.50;;
58472;SDS011;44775;51.564;5.460;2022-10-19T03:41:23;28.38;;;13.18;;
58472;SDS011;44775;51.564;5.460;2022-10-19T03:43:50;29.70;;;11.80;;
58472;SDS011;44775;51.564;5.460;2022-10-19T03:46:16;22.67;;;11.60;;
58472;SDS011;44775;51.564;5.460;2022-10-19T03:48:41;26.38;;;12.70;;
58472;SDS011;44775;51.564;5.460;2022-10-19T03:51:08;19.38;;;12.20;;
58472;SDS011;44775;51.564;5.460;2022-10-19T03:53:36;26.88;;;12.70;;
58472;SDS011;44775;51.564;5.460;2022-10-19T03:56:02;22.85;;;11.73;;
58472;SDS011;44775;51.564;5.460;2022-10-19T03:58:30;27.52;;;12.27;;
58472;SDS011;44775;51.564;5.460;2022-10-19T04:00:57;22.15;;;11.98;;
58472;SDS011;44775;51.564;5.460;2022-10-19T04:03:22;24.92;;;11.52;;
58472;SDS011;44775;51.564;5.460;2022-10-19T04:05:48;25.30;;;12.40;;
58472;SDS011;44775;51.564;5.460;2022-10-19T04:08:14;22.10;;;12.20;;
58472;SDS011;44775;51.564;5.460;2022-10-19T04:10:39;24.25;;;12.90;;
58472;SDS011;44775;51.564;5.460;2022-10-19T04:13:04;25.90;;;11.90;;
58472;SDS011;44775;51.564;5.460;2022-10-19T04:15:30;25.73;;;12.73;;
58472;SDS011;44775;51.564;5.460;2022-10-19T04:17:55;22.15;;;12.20;;
58472;SDS011;44775;51.564;5.460;2022-10-19T04:20:21;25.70;;;12.80;;
58472;SDS011;44775;51.564;5.460;2022-10-19T04:22:46;27.35;;;12.75;;
58472;SDS011;44775;51.564;5.460;2022-10-19T04:25:11;27.70;;;12.93;;
58472;SDS011;44775;51.564;5.460;2022-10-19T04:27:37;26.67;;;11.80;;
58472;SDS011;44775;51.564;5.460;2022-10-19T04:30:02;23.38;;;12.85;;
58472;SDS011;44775;51.564;5.460;2022-10-19T04:32:28;24.67;;;12.85;;
58472;SDS011;44775;51.564;5.460;2022-10-19T04:34:54;30.38;;;13.88;;
58472;SDS011;44775;51.564;5.460;2022-10-19T04:37:19;33.50;;;13.55;;
58472;SDS011;44775;51.564;5.460;2022-10-19T04:39:44;26.85;;;12.70;;
58472;SDS011;44775;51.564;5.460;2022-10-19T04:42:10;29.17;;;13.50;;
58472;SDS011;44775;51.564;5.460;2022-10-19T04:44:35;26.55;;;13.15;;
58472;SDS011;44775;51.564;5.460;2022-10-19T04:47:01;28.40;;;13.90;;
58472;SDS011;44775;51.564;5.460;2022-10-19T04:49:26;26.80;;;14.32;;
58472;SDS011;44775;51.564;5.460;2022-10-19T04:51:52;29.42;;;14.50;;
58472;SDS011;44775;51.564;5.460;2022-10-19T04:54:17;28.60;;;15.35;;
58472;SDS011;44775;51.564;5.460;2022-10-19T04:56:42;30.25;;;15.48;;
58472;SDS011;44775;51.564;5.460;2022-10-19T04:59:08;30.65;;;15.85;;
58472;SDS011;44775;51.564;5.460;2022-10-19T05:01:34;28.20;;;15.85;;
58472;SDS011;44775;51.564;5.460;2022-10-19T05:04:00;34.22;;;15.60;;
58472;SDS011;44775;51.564;5.460;2022-10-19T05:06:27;36.30;;;16.10;;
58472;SDS011;44775;51.564;5.460;2022-10-19T05:08:54;35.47;;;16.25;;
58472;SDS011;44775;51.564;5.460;2022-10-19T05:11:19;34.65;;;16.17;;
58472;SDS011;44775;51.564;5.460;2022-10-19T05:13:46;25.30;;;15.50;;
58472;SDS011;44775;51.564;5.460;2022-10-19T05:16:13;30.85;;;15.90;;
58472;SDS011;44775;51.564;5.460;2022-10-19T05:18:40;28.45;;;16.00;;
58472;SDS011;44775;51.564;5.460;2022-10-19T05:21:08;28.23;;;16.60;;
58472;SDS011;44775;51.564;5.460;2022-10-19T05:23:35;35.80;;;16.70;;
58472;SDS011;44775;51.564;5.460;2022-10-19T05:26:02;35.45;;;16.55;;
58472;SDS011;44775;51.564;5.460;2022-10-19T05:28:29;33.00;;;16.05;;
58472;SDS011;44775;51.564;5.460;2022-10-19T05:30:55;31.92;;;15.73;;
58472;SDS011;44775;51.564;5.460;2022-10-19T05:33:28;32.22;;;16.15;;
58472;SDS011;44775;51.564;5.460;2022-10-19T05:35:53;34.75;;;16.55;;
58472;SDS011;44775;51.564;5.460;2022-10-19T05:38:19;29.45;;;16.35;;
58472;SDS011;44775;51.564;5.460;2022-10-19T05:40:44;28.92;;;15.50;;
58472;SDS011;44775;51.564;5.460;2022-10-19T05:43:10;35.97;;;16.33;;
58472;SDS011;44775;51.564;5.460;2022-10-19T05:45:36;39.72;;;18.38;;
58472;SDS011;44775;51.564;5.460;2022-10-19T05:48:01;35.22;;;17.85;;
58472;SDS011;44775;51.564;5.460;2022-10-19T05:50:27;33.92;;;17.35;;
58472;SDS011;44775;51.564;5.460;2022-10-19T05:52:52;31.10;;;16.08;;
58472;SDS011;44775;51.564;5.460;2022-10-19T05:55:17;32.83;;;17.58;;
58472;SDS011;44775;51.564;5.460;2022-10-19T05:57:43;36.33;;;17.83;;
58472;SDS011;44775;51.564;5.460;2022-10-19T06:00:08;37.85;;;18.25;;
58472;SDS011;44775;51.564;5.460;2022-10-19T06:02:35;38.38;;;18.52;;
58472;SDS011;44775;51.564;5.460;2022-10-19T06:05:00;36.47;;;18.55;;
58472;SDS011;44775;51.564;5.460;2022-10-19T06:07:25;34.42;;;17.77;;
58472;SDS011;44775;51.564;5.460;2022-10-19T06:09:51;37.25;;;19.02;;
58472;SDS011;44775;51.564;5.460;2022-10-19T06:12:19;33.88;;;18.00;;
58472;SDS011;44775;51.564;5.460;2022-10-19T06:14:45;34.38;;;18.75;;
58472;SDS011;44775;51.564;5.460;2022-10-19T06:17:10;38.35;;;19.00;;
58472;SDS011;44775;51.564;5.460;2022-10-19T06:19:36;37.22;;;18.90;;
58472;SDS011;44775;51.564;5.460;2022-10-19T06:22:01;44.03;;;19.10;;
58472;SDS011;44775;51.564;5.460;2022-10-19T06:24:27;38.88;;;18.88;;
58472;SDS011;44775;51.564;5.460;2022-10-19T06:26:52;40.03;;;19.77;;
58472;SDS011;44775;51.564;5.460;2022-10-19T06:29:18;38.15;;;20.15;;
58472;SDS011;44775;51.564;5.460;2022-10-19T06:31:43;35.38;;;18.77;;
58472;SDS011;44775;51.564;5.460;2022-10-19T06:34:10;36.40;;;17.83;;
58472;SDS011;44775;51.564;5.460;2022-10-19T06:36:35;39.72;;;18.80;;
58472;SDS011;44775;51.564;5.460;2022-10-19T06:39:02;36.83;;;20.17;;
58472;SDS011;44775;51.564;5.460;2022-10-19T06:41:29;40.13;;;20.20;;
58472;SDS011;44775;51.564;5.460;2022-10-19T06:43:55;42.97;;;19.55;;
58472;SDS011;44775;51.564;5.460;2022-10-19T06:46:22;42.17;;;19.35;;
58472;SDS011;44775;51.564;5.460;2022-10-19T06:48:49;44.15;;;20.17;;
58472;SDS011;44775;51.564;5.460;2022-10-19T06:51:16;44.78;;;19.90;;
58472;SDS011;44775;51.564;5.460;2022-10-19T06:53:42;37.10;;;19.75;;
58472;SDS011;44775;51.564;5.460;2022-10-19T06:56:08;37.55;;;20.45;;
58472;SDS011;44775;51.564;5.460;2022-10-19T06:58:35;37.88;;;19.90;;
58472;SDS011;44775;51.564;5.460;2022-10-19T07:01:01;41.92;;;20.52;;
58472;SDS011;44775;51.564;5.460;2022-10-19T07:03:28;33.78;;;19.17;;
58472;SDS011;44775;51.564;5.460;2022-10-19T07:05:55;44.85;;;20.42;;
58472;SDS011;44775;51.564;5.460;2022-10-19T07:08:21;37.95;;;20.13;;
58472;SDS011;44775;51.564;5.460;2022-10-19T07:10:51;38.83;;;20.20;;
58472;SDS011;44775;51.564;5.460;2022-10-19T07:13:18;40.13;;;19.77;;
58472;SDS011;44775;51.564;5.460;2022-10-19T07:15:43;41.08;;;19.35;;
58472;SDS011;44775;51.564;5.460;2022-10-19T07:18:09;33.88;;;19.17;;
58472;SDS011;44775;51.564;5.460;2022-10-19T07:20:34;38.72;;;20.25;;
58472;SDS011;44775;51.564;5.460;2022-10-19T07:22:59;38.83;;;20.13;;
58472;SDS011;44775;51.564;5.460;2022-10-19T07:25:26;38.45;;;20.10;;
58472;SDS011;44775;51.564;5.460;2022-10-19T07:27:52;35.60;;;20.42;;
58472;SDS011;44775;51.564;5.460;2022-10-19T07:30:17;38.05;;;19.92;;
58472;SDS011;44775;51.564;5.460;2022-10-19T07:32:44;39.15;;;20.40;;
58472;SDS011;44775;51.564;5.460;2022-10-19T07:35:10;40.55;;;21.00;;
58472;SDS011;44775;51.564;5.460;2022-10-19T07:37:35;36.97;;;19.65;;
58472;SDS011;44775;51.564;5.460;2022-10-19T07:40:01;37.85;;;20.40;;
58472;SDS011;44775;51.564;5.460;2022-10-19T07:42:27;35.45;;;20.77;;
58472;SDS011;44775;51.564;5.460;2022-10-19T07:44:54;35.53;;;19.98;;
58472;SDS011;44775;51.564;5.460;2022-10-19T07:47:20;31.90;;;18.48;;
58472;SDS011;44775;51.564;5.460;2022-10-19T07:49:45;29.75;;;17.40;;
58472;SDS011;44775;51.564;5.460;2022-10-19T07:52:10;31.77;;;16.75;;
58472;SDS011;44775;51.564;5.460;2022-10-19T07:54:36;30.17;;;16.60;;
58472;SDS011;44775;51.564;5.460;2022-10-19T07:57:01;28.42;;;16.63;;
58472;SDS011;44775;51.564;5.460;2022-10-19T07:59:27;26.05;;;16.00;;
58472;SDS011;44775;51.564;5.460;2022-10-19T08:01:52;25.13;;;15.00;;
58472;SDS011;44775;51.564;5.460;2022-10-19T08:04:18;25.38;;;14.85;;
58472;SDS011;44775;51.564;5.460;2022-10-19T08:06:44;23.02;;;13.88;;
58472;SDS011;44775;51.564;5.460;2022-10-19T08:09:09;23.88;;;14.45;;
58472;SDS011;44775;51.564;5.460;2022-10-19T08:11:35;20.92;;;13.38;;
58472;SDS011;44775;51.564;5.460;2022-10-19T08:14:01;22.35;;;13.68;;
58472;SDS011;44775;51.564;5.460;2022-10-19T08:16:34;16.27;;;12.32;;
58472;SDS011;44775;51.564;5.460;2022-10-19T08:19:06;19.20;;;12.40;;
58472;SDS011;44775;51.564;5.460;2022-10-19T08:21:36;16.08;;;11.40;;
58472;SDS011;44775;51.564;5.460;2022-10-19T08:24:03;17.65;;;10.75;;
58472;SDS011;44775;51.564;5.460;2022-10-19T08:26:30;17.80;;;11.35;;
58472;SDS011;44775;51.564;5.460;2022-10-19T08:29:03;18.52;;;10.80;;
58472;SDS011;44775;51.564;5.460;2022-10-19T08:31:31;15.73;;;9.20;;
58472;SDS011;44775;51.564;5.460;2022-10-19T08:33:57;17.75;;;9.50;;
58472;SDS011;44775;51.564;5.460;2022-10-19T08:36:23;16.33;;;8.93;;
58472;SDS011;44775;51.564;5.460;2022-10-19T08:38:49;19.23;;;9.20;;
58472;SDS011;44775;51.564;5.460;2022-10-19T08:41:35;11.73;;;8.05;;
58472;SDS011;44775;51.564;5.460;2022-10-19T08:49:48;11.63;;;6.70;;
58472;SDS011;44775;51.564;5.460;2022-10-19T08:52:21;13.75;;;7.10;;
58472;SDS011;44775;51.564;5.460;2022-10-19T08:54:52;13.75;;;6.40;;
58472;SDS011;44775;51.564;5.460;2022-10-19T08:59:53;12.85;;;6.28;;
58472;SDS011;44775;51.564;5.460;2022-10-19T09:04:57;9.93;;;5.85;;
58472;SDS011;44775;51.564;5.460;2022-10-19T09:07:30;8.85;;;5.53;;
58472;SDS011;44775;51.564;5.460;2022-10-19T09:10:03;9.52;;;5.30;;
58472;SDS011;44775;51.564;5.460;2022-10-19T09:12:55;13.63;;;5.38;;
58472;SDS011;44775;51.564;5.460;2022-10-19T09:15:28;10.32;;;4.85;;
58472;SDS011;44775;51.564;5.460;2022-10-19T09:17:58;11.18;;;4.38;;
58472;SDS011;44775;51.564;5.460;2022-10-19T09:20:26;10.20;;;4.13;;
58472;SDS011;44775;51.564;5.460;2022-10-19T09:23:11;9.70;;;3.80;;
58472;SDS011;44775;51.564;5.460;2022-10-19T09:25:52;6.82;;;3.30;;
58472;SDS011;44775;51.564;5.460;2022-10-19T09:31:00;6.55;;;3.35;;
58472;SDS011;44775;51.564;5.460;2022-10-19T09:33:31;8.43;;;3.40;;
58472;SDS011;44775;51.564;5.460;2022-10-19T09:35:59;7.65;;;3.50;;
58472;SDS011;44775;51.564;5.460;2022-10-19T09:38:29;7.25;;;3.08;;
58472;SDS011;44775;51.564;5.460;2022-10-19T09:40:56;9.20;;;3.22;;
58472;SDS011;44775;51.564;5.460;2022-10-19T09:43:23;6.97;;;3.03;;
58472;SDS011;44775;51.564;5.460;2022-10-19T09:46:02;6.40;;;2.88;;
58472;SDS011;44775;51.564;5.460;2022-10-19T09:48:57;11.25;;;3.47;;
58472;SDS011;44775;51.564;5.460;2022-10-19T09:51:23;7.40;;;2.90;;
58472;SDS011;44775;51.564;5.460;2022-10-19T09:53:49;7.55;;;2.88;;
58472;SDS011;44775;51.564;5.460;2022-10-19T09:58:47;8.43;;;3.10;;
58472;SDS011;44775;51.564;5.460;2022-10-19T10:01:36;8.52;;;3.30;;
58472;SDS011;44775;51.564;5.460;2022-10-19T10:04:14;6.82;;;3.03;;
58472;SDS011;44775;51.564;5.460;2022-10-19T10:06:42;10.93;;;3.30;;
58472;SDS011;44775;51.564;5.460;2022-10-19T10:09:14;10.23;;;3.50;;
58472;SDS011;44775;51.564;5.460;2022-10-19T10:11:47;8.82;;;3.05;;
58472;SDS011;44775;51.564;5.460;2022-10-19T10:14:18;10.13;;;3.10;;
58472;SDS011;44775;51.564;5.460;2022-10-19T10:16:47;8.70;;;3.20;;
58472;SDS011;44775;51.564;5.460;2022-10-19T10:19:18;8.30;;;3.05;;
58472;SDS011;44775;51.564;5.460;2022-10-19T10:21:47;9.75;;;3.42;;
58472;SDS011;44775;51.564;5.460;2022-10-19T10:24:16;9.60;;;3.40;;
58472;SDS011;44775;51.564;5.460;2022-10-19T10:26:44;7.70;;;3.30;;
58472;SDS011;44775;51.564;5.460;2022-10-19T10:31:52;7.80;;;3.38;;
58472;SDS011;44775;51.564;5.460;2022-10-19T10:34:54;10.88;;;3.10;;
58472;SDS011;44775;51.564;5.460;2022-10-19T10:37:23;7.13;;;2.80;;
58472;SDS011;44775;51.564;5.460;2022-10-19T10:39:55;8.05;;;2.50;;
58472;SDS011;44775;51.564;5.460;2022-10-19T10:42:26;10.07;;;3.00;;
58472;SDS011;44775;51.564;5.460;2022-10-19T10:44:56;10.27;;;2.75;;
58472;SDS011;44775;51.564;5.460;2022-10-19T10:47:22;7.22;;;2.67;;
58472;SDS011;44775;51.564;5.460;2022-10-19T10:50:00;9.23;;;2.75;;
58472;SDS011;44775;51.564;5.460;2022-10-19T10:52:30;10.38;;;3.10;;
58472;SDS011;44775;51.564;5.460;2022-10-19T10:54:57;7.03;;;3.00;;
58472;SDS011;44775;51.564;5.460;2022-10-19T10:59:56;10.57;;;3.40;;
58472;SDS011;44775;51.564;5.460;2022-10-19T11:02:40;10.45;;;3.20;;
58472;SDS011;44775;51.564;5.460;2022-10-19T11:05:17;9.30;;;3.33;;
58472;SDS011;44775;51.564;5.460;2022-10-19T11:07:49;8.25;;;3.58;;
58472;SDS011;44775;51.564;5.460;2022-10-19T11:10:35;10.43;;;3.63;;
58472;SDS011;44775;51.564;5.460;2022-10-19T11:18:49;8.25;;;3.53;;
58472;SDS011;44775;51.564;5.460;2022-10-19T11:21:41;9.15;;;3.40;;
58472;SDS011;44775;51.564;5.460;2022-10-19T11:30:05;9.23;;;3.83;;
58472;SDS011;44775;51.564;5.460;2022-10-19T11:37:57;7.63;;;3.33;;
58472;SDS011;44775;51.564;5.460;2022-10-19T11:43:14;7.43;;;3.55;;
58472;SDS011;44775;51.564;5.460;2022-10-19T11:48:50;8.75;;;3.90;;
58472;SDS011;44775;51.564;5.460;2022-10-19T11:56:54;8.60;;;3.97;;
58472;SDS011;44775;51.564;5.460;2022-10-19T11:59:46;7.95;;;4.30;;
58472;SDS011;44775;51.564;5.460;2022-10-19T12:02:30;10.85;;;4.05;;
58472;SDS011;44775;51.564;5.460;2022-10-19T12:10:37;10.80;;;4.33;;
58472;SDS011;44775;51.564;5.460;2022-10-19T12:13:11;11.95;;;4.25;;
58472;SDS011;44775;51.564;5.460;2022-10-19T12:15:43;9.82;;;4.28;;
58472;SDS011;44775;51.564;5.460;2022-10-19T12:20:50;12.77;;;4.60;;
58472;SDS011;44775;51.564;5.460;2022-10-19T12:26:04;7.20;;;3.63;;
58472;SDS011;44775;51.564;5.460;2022-10-19T12:28:35;9.18;;;3.40;;
58472;SDS011;44775;51.564;5.460;2022-10-19T12:31:03;7.30;;;3.63;;
58472;SDS011;44775;51.564;5.460;2022-10-19T12:39:12;9.05;;;4.10;;
58472;SDS011;44775;51.564;5.460;2022-10-19T12:47:20;10.32;;;4.00;;
58472;SDS011;44775;51.564;5.460;2022-10-19T12:49:48;9.90;;;3.90;;
58472;SDS011;44775;51.564;5.460;2022-10-19T12:52:32;7.75;;;3.72;;
58472;SDS011;44775;51.564;5.460;2022-10-19T12:55:11;12.55;;;4.32;;
58472;SDS011;44775;51.564;5.460;2022-10-19T12:57:47;9.57;;;3.90;;
58472;SDS011;44775;51.564;5.460;2022-10-19T13:00:21;8.73;;;4.18;;
58472;SDS011;44775;51.564;5.460;2022-10-19T13:02:57;10.70;;;4.43;;
58472;SDS011;44775;51.564;5.460;2022-10-19T13:05:53;8.90;;;4.05;;
58472;SDS011;44775;51.564;5.460;2022-10-19T13:08:43;9.65;;;4.18;;
58472;SDS011;44775;51.564;5.460;2022-10-19T13:11:10;13.05;;;4.35;;
58472;SDS011;44775;51.564;5.460;2022-10-19T13:19:01;13.65;;;4.47;;
58472;SDS011;44775;51.564;5.460;2022-10-19T13:40:37;10.27;;;3.40;;
58472;SDS011;44775;51.564;5.460;2022-10-19T13:43:31;7.97;;;3.22;;
58472;SDS011;44775;51.564;5.460;2022-10-19T14:08:02;10.10;;;3.58;;
58472;SDS011;44775;51.564;5.460;2022-10-19T14:11:01;10.77;;;3.83;;
58472;SDS011;44775;51.564;5.460;2022-10-19T14:13:28;9.00;;;3.63;;
58472;SDS011;44775;51.564;5.460;2022-10-19T14:15:56;10.77;;;3.90;;
58472;SDS011;44775;51.564;5.460;2022-10-19T14:18:31;12.25;;;3.70;;
58472;SDS011;44775;51.564;5.460;2022-10-19T14:20:59;9.48;;;4.05;;
58472;SDS011;44775;51.564;5.460;2022-10-19T14:23:27;11.60;;;3.97;;
58472;SDS011;44775;51.564;5.460;2022-10-19T14:26:04;9.82;;;3.88;;
58472;SDS011;44775;51.564;5.460;2022-10-19T14:28:35;8.10;;;3.83;;
58472;SDS011;44775;51.564;5.460;2022-10-19T14:33:31;8.77;;;3.67;;
58472;SDS011;44775;51.564;5.460;2022-10-19T14:35:59;8.48;;;3.45;;
58472;SDS011;44775;51.564;5.460;2022-10-19T14:41:00;8.68;;;2.92;;
58472;SDS011;44775;51.564;5.460;2022-10-19T14:43:28;6.95;;;3.33;;
58472;SDS011;44775;51.564;5.460;2022-10-19T14:46:29;7.73;;;3.10;;
58472;SDS011;44775;51.564;5.460;2022-10-19T14:49:00;8.55;;;3.08;;
58472;SDS011;44775;51.564;5.460;2022-10-19T14:51:31;10.13;;;3.15;;
58472;SDS011;44775;51.564;5.460;2022-10-19T14:54:05;8.27;;;2.97;;
58472;SDS011;44775;51.564;5.460;2022-10-19T14:56:42;6.45;;;2.72;;
58472;SDS011;44775;51.564;5.460;2022-10-19T14:59:35;8.13;;;3.60;;
58472;SDS011;44775;51.564;5.460;2022-10-19T15:02:20;7.75;;;3.30;;
58472;SDS011;44775;51.564;5.460;2022-10-19T15:04:46;7.10;;;3.15;;
58472;SDS011;44775;51.564;5.460;2022-10-19T15:07:34;7.15;;;3.38;;
58472;SDS011;44775;51.564;5.460;2022-10-19T15:10:02;8.57;;;4.05;;
58472;SDS011;44775;51.564;5.460;2022-10-19T15:12:34;8.82;;;4.40;;
58472;SDS011;44775;51.564;5.460;2022-10-19T15:15:09;7.65;;;4.28;;
58472;SDS011;44775;51.564;5.460;2022-10-19T15:17:50;8.70;;;4.07;;
58472;SDS011;44775;51.564;5.460;2022-10-19T15:20:32;7.43;;;4.18;;
58472;SDS011;44775;51.564;5.460;2022-10-19T15:23:00;9.40;;;4.32;;
58472;SDS011;44775;51.564;5.460;2022-10-19T15:30:56;9.68;;;4.90;;
58472;SDS011;44775;51.564;5.460;2022-10-19T15:33:23;9.77;;;4.32;;
58472;SDS011;44775;51.564;5.460;2022-10-19T15:35:49;8.13;;;4.43;;
58472;SDS011;44775;51.564;5.460;2022-10-19T15:40:56;9.07;;;4.60;;
58472;SDS011;44775;51.564;5.460;2022-10-19T15:53:56;9.63;;;5.40;;
58472;SDS011;44775;51.564;5.460;2022-10-19T15:56:32;15.25;;;5.90;;
58472;SDS011;44775;51.564;5.460;2022-10-19T15:59:00;9.73;;;6.07;;
58472;SDS011;44775;51.564;5.460;2022-10-19T16:01:28;11.05;;;6.20;;
58472;SDS011;44775;51.564;5.460;2022-10-19T16:03:55;12.07;;;6.30;;
58472;SDS011;44775;51.564;5.460;2022-10-19T16:06:22;10.85;;;6.45;;
58472;SDS011;44775;51.564;5.460;2022-10-19T16:08:50;10.05;;;6.00;;
58472;SDS011;44775;51.564;5.460;2022-10-19T16:11:18;10.35;;;6.05;;
58472;SDS011;44775;51.564;5.460;2022-10-19T16:13:45;9.10;;;5.30;;
58472;SDS011;44775;51.564;5.460;2022-10-19T16:16:12;12.80;;;5.40;;
58472;SDS011;44775;51.564;5.460;2022-10-19T16:18:45;11.05;;;5.38;;
58472;SDS011;44775;51.564;5.460;2022-10-19T16:21:11;11.05;;;5.30;;
58472;SDS011;44775;51.564;5.460;2022-10-19T16:23:37;7.53;;;5.53;;
58472;SDS011;44775;51.564;5.460;2022-10-19T16:26:03;9.60;;;5.65;;
58472;SDS011;44775;51.564;5.460;2022-10-19T16:28:29;11.82;;;5.60;;
58472;SDS011;44775;51.564;5.460;2022-10-19T16:30:54;9.15;;;5.88;;
58472;SDS011;44775;51.564;5.460;2022-10-19T16:33:21;12.13;;;6.00;;
58472;SDS011;44775;51.564;5.460;2022-10-19T16:35:46;10.85;;;5.68;;
58472;SDS011;44775;51.564;5.460;2022-10-19T16:38:12;11.32;;;6.22;;
58472;SDS011;44775;51.564;5.460;2022-10-19T16:40:37;12.02;;;6.30;;
58472;SDS011;44775;51.564;5.460;2022-10-19T16:43:03;10.48;;;5.80;;
58472;SDS011;44775;51.564;5.460;2022-10-19T16:45:29;10.15;;;6.05;;
58472;SDS011;44775;51.564;5.460;2022-10-19T16:47:55;10.60;;;5.97;;
58472;SDS011;44775;51.564;5.460;2022-10-19T16:50:20;10.27;;;6.10;;
58472;SDS011;44775;51.564;5.460;2022-10-19T16:52:46;10.52;;;6.00;;
58472;SDS011;44775;51.564;5.460;2022-10-19T16:55:12;11.15;;;5.97;;
58472;SDS011;44775;51.564;5.460;2022-10-19T16:57:38;8.35;;;5.72;;
58472;SDS011;44775;51.564;5.460;2022-10-19T17:00:04;13.10;;;6.13;;
58472;SDS011;44775;51.564;5.460;2022-10-19T17:02:30;13.43;;;6.60;;
58472;SDS011;44775;51.564;5.460;2022-10-19T17:04:56;10.07;;;6.28;;
58472;SDS011;44775;51.564;5.460;2022-10-19T17:07:21;12.13;;;6.18;;
58472;SDS011;44775;51.564;5.460;2022-10-19T17:09:47;14.43;;;6.88;;
58472;SDS011;44775;51.564;5.460;2022-10-19T17:12:13;13.18;;;6.35;;
58472;SDS011;44775;51.564;5.460;2022-10-19T17:14:40;9.18;;;6.30;;
58472;SDS011;44775;51.564;5.460;2022-10-19T17:17:06;9.73;;;6.20;;
58472;SDS011;44775;51.564;5.460;2022-10-19T17:19:33;12.90;;;6.15;;
58472;SDS011;44775;51.564;5.460;2022-10-19T17:21:59;13.73;;;6.47;;
58472;SDS011;44775;51.564;5.460;2022-10-19T17:24:26;9.95;;;6.32;;
58472;SDS011;44775;51.564;5.460;2022-10-19T17:26:52;10.93;;;6.18;;
58472;SDS011;44775;51.564;5.460;2022-10-19T17:29:18;9.02;;;5.70;;
58472;SDS011;44775;51.564;5.460;2022-10-19T17:31:44;12.55;;;5.93;;
58472;SDS011;44775;51.564;5.460;2022-10-19T17:34:10;10.98;;;5.82;;